نخجوان, جمهوری آذربایجان

02:08 PM AZT on نوامبر 21, 2014 (GMT +0400)
NAKHCHIVAN | Change Station
CLOSE
Current Station
Airport
Location: NAKHCHIVAN,
Elevation: 2864 ft
Nearby Weather Stations

Elev 2864 ft 39.19 °N, 45.46 °E | Updated 8 minutes ago

Clear
صاف
52 °F
Feels Like 52 °F
N
5
باد متغير باد from غرب

امروز
High -- | Low -- °F
--% Chance of Precip.
دیروز
High -- | Low -- °F
Precip. -- در
7:47 AM 5:40 PM
Waning Crescent, 1% visible
فشار 30.06 در
ديد 4.3 مايل، ميل (در برابر كيلومتر
ابری
قطره شبنم 39 °F
رطوبت 62%
بارش باران 0.00 در
برف عمیق Not available.
مادون قرمز Not available.
Pollen Not available.
تمیزی هوا Not available.
Flu Activity Not available.
METAR UBBN 211000Z 26004KT 7000 NSC 11/04 Q1018 R14R/CLRD60 NOSIG RMK MT OBSC QFE689

More Conditions Fewer Conditions

فشار 30.06 در
ديد 4.3 مايل، ميل (در برابر كيلومتر
ابری
قطره شبنم 39 °F
رطوبت 62%
بارش باران 0.00 در
برف عمیق Not available.
مادون قرمز Not available.
Pollen Not available.
تمیزی هوا Not available.
Flu Activity Not available.
METAR UBBN 211000Z 26004KT 7000 NSC 11/04 Q1018 R14R/CLRD60 NOSIG RMK MT OBSC QFE689

More Conditions Fewer Conditions

10-Day Weather Forecast

Almanac

ستاره شناسی

Nov. 21, 2014 Rise Set
وقت حقیقی
تاریک و روشن اجتماعی
تاریک روشن دریایی
شفق و فلق نجومی
ماه
میزان روشنایی روز
طول روز
Tomorrow will be .
, % of the Moon is Illuminated

Today's Extremes

Country Highs Country Lows

Community

WunderPhotos

Upload Photos

1,772,640 photos uploaded!

WunderBlogs® & News

Nearby

تمیزی هوا

  تمیزی هوا AQ Index آلاینده
Not available.

عمق برف

Station Depth Elevation

Earthquake Activity

شهر Distance Mag. Time & Date
Minimum magnitude displayed is 2.5.

Coastal Water Temperatures

منطقه درجه حرارت

Nearby Weather Stations